| time (UTC) | temp C | wind direction | speed KPH | gust KPH | rain 1hr cm | rain 24hr cm | rain mn cm | humidity % | barometer mb |
| 20260507174516 | 20 | 60 | 4.8 | 6.4 | 0.00 | 0.00 | 0.00 | 77 | 1013.0 |
| 20260507174416 | 20 | 60 | 4.8 | 6.4 | 0.00 | 0.00 | 0.00 | 77 | 1013.0 |
| 20260507172516 | 20 | 60 | 3.2 | 6.4 | 0.00 | 0.00 | 0.00 | 77 | 1013.0 |
| 20260507172415 | 20 | 60 | 3.2 | 6.4 | 0.00 | 0.00 | 0.00 | 77 | 1013.0 |
| 20260507170515 | 20 | 60 | 3.2 | 6.4 | 0.00 | 0.00 | 0.00 | 79 | 1013.0 |
| 20260507170415 | 20 | 60 | 3.2 | 6.4 | 0.00 | 0.00 | 0.00 | 79 | 1013.0 |
| 20260507164514 | 19 | 60 | 3.2 | 6.4 | 0.00 | 0.00 | 0.00 | 79 | 1014.0 |
| 20260507164414 | 19 | 60 | 3.2 | 6.4 | 0.00 | 0.00 | 0.00 | 79 | 1014.0 |
| 20260507162514 | 20 | 66 | 4.8 | 6.4 | 0.00 | 0.00 | 0.00 | 78 | 1013.0 |
| 20260507162414 | 20 | 66 | 4.8 | 6.4 | 0.00 | 0.00 | 0.00 | 78 | 1013.0 |
| 20260507160513 | 19 | 66 | 4.8 | 6.4 | 0.00 | 0.00 | 0.00 | 81 | 1013.0 |
| 20260507160413 | 19 | 66 | 4.8 | 6.4 | 0.00 | 0.00 | 0.00 | 81 | 1013.0 |
| 20260507154512 | 19 | 66 | 4.8 | 6.4 | 0.00 | 0.00 | 0.00 | 78 | 1014.0 |
| 20260507154412 | 19 | 66 | 4.8 | 6.4 | 0.00 | 0.00 | 0.00 | 78 | 1014.0 |
| 20260507152512 | 20 | 63 | 4.8 | 8.0 | 0.00 | 0.00 | 0.00 | 80 | 1013.0 |
| 20260507152411 | 20 | 63 | 4.8 | 8.0 | 0.00 | 0.00 | 0.00 | 80 | 1013.0 |
| 20260507150511 | 20 | 63 | 4.8 | 8.0 | 0.00 | 0.00 | 0.00 | 80 | 1013.0 |
| 20260507150411 | 20 | 63 | 4.8 | 8.0 | 0.00 | 0.00 | 0.00 | 80 | 1013.0 |
| 20260507144511 | 20 | 45 | 4.8 | 8.0 | 0.00 | 0.00 | 0.00 | 82 | 1014.0 |
| 20260507144410 | 20 | 45 | 4.8 | 8.0 | 0.00 | 0.00 | 0.00 | 82 | 1014.0 |
| 20260507142510 | 20 | 45 | 4.8 | 8.0 | 0.00 | 0.00 | 0.00 | 82 | 1013.0 |
| 20260507142410 | 20 | 45 | 4.8 | 8.0 | 0.00 | 0.00 | 0.00 | 82 | 1013.0 |
| 20260507140509 | 20 | 45 | 4.8 | 9.7 | 0.00 | 0.00 | 0.00 | 82 | 1013.0 |
| 20260507140409 | 20 | 45 | 4.8 | 9.7 | 0.00 | 0.00 | 0.00 | 82 | 1013.0 |
| 20260507134509 | 17 | 19 | 4.8 | 8.0 | 0.00 | 0.00 | 0.00 | 88 | 1014.0 |
| 20260507134409 | 17 | 19 | 4.8 | 8.0 | 0.00 | 0.00 | 0.00 | 88 | 1014.0 |
| 20260507132508 | 17 | 19 | 4.8 | 8.0 | 0.00 | 0.00 | 0.00 | 88 | 1013.0 |
| 20260507132408 | 17 | 19 | 4.8 | 8.0 | 0.00 | 0.00 | 0.00 | 88 | 1013.0 |
| 20260507130508 | 18 | 19 | 4.8 | 9.7 | 0.00 | 0.00 | 0.00 | 88 | 1012.0 |
| 20260507130408 | 18 | 19 | 4.8 | 9.7 | 0.00 | 0.00 | 0.00 | 88 | 1012.0 |
| 20260507124507 | 16 | 58 | 6.4 | 8.0 | 0.00 | 0.00 | 0.00 | 76 | 1014.0 |
| 20260507124407 | 16 | 58 | 6.4 | 8.0 | 0.00 | 0.00 | 0.00 | 76 | 1014.0 |
| 20260507122507 | 16 | 58 | 6.4 | 8.0 | 0.00 | 0.00 | 0.00 | 76 | 1012.0 |
| 20260507122406 | 16 | 58 | 6.4 | 8.0 | 0.00 | 0.00 | 0.00 | 76 | 1012.0 |
| 20260507120506 | 16 | 58 | 6.4 | 8.0 | 0.00 | 0.00 | 0.00 | 76 | 1012.0 |
| 20260507120406 | 16 | 58 | 6.4 | 8.0 | 0.00 | 0.00 | 0.00 | 76 | 1012.0 |
| 20260507114506 | 16 | 58 | 6.4 | 8.0 | 0.00 | 0.00 | 0.00 | 76 | 1013.0 |
| 20260507114405 | 16 | 58 | 6.4 | 8.0 | 0.00 | 0.00 | 0.00 | 76 | 1013.0 |
| 20260507112505 | 16 | 58 | 6.4 | 8.0 | 0.00 | 0.00 | 0.00 | 76 | 1012.0 |
| 20260507112405 | 16 | 58 | 6.4 | 8.0 | 0.00 | 0.00 | 0.00 | 76 | 1012.0 |
| 20260507110504 | 16 | 58 | 6.4 | 8.0 | 0.00 | 0.00 | 0.00 | 76 | 1013.0 |
| 20260507110404 | 16 | 58 | 6.4 | 8.0 | 0.00 | 0.00 | 0.00 | 76 | 1013.0 |
| 20260507104504 | 16 | 58 | 6.4 | 8.0 | 0.00 | 0.00 | 0.00 | 76 | 1014.0 |
| 20260507104404 | 16 | 58 | 6.4 | 8.0 | 0.00 | 0.00 | 0.00 | 76 | 1014.0 |
| 20260507102504 | 16 | 58 | 6.4 | 8.0 | 0.00 | 0.00 | 0.00 | 76 | 1013.0 |
| 20260507102403 | 16 | 58 | 6.4 | 8.0 | 0.00 | 0.00 | 0.00 | 76 | 1013.0 |
| 20260507100503 | 16 | 58 | 6.4 | 8.0 | 0.00 | 0.00 | 0.00 | 76 | 1012.0 |
| 20260507100403 | 16 | 58 | 6.4 | 8.0 | 0.00 | 0.00 | 0.00 | 76 | 1012.0 |
| 20260507094503 | 16 | 58 | 6.4 | 8.0 | 0.00 | 0.00 | 0.00 | 76 | 1013.0 |
| 20260507094402 | 16 | 58 | 6.4 | 8.0 | 0.00 | 0.00 | 0.00 | 76 | 1013.0 |
| 20260507092502 | 16 | 58 | 6.4 | 8.0 | 0.00 | 0.00 | 0.00 | 76 | 1012.0 |
| 20260507092402 | 16 | 58 | 6.4 | 8.0 | 0.00 | 0.00 | 0.00 | 76 | 1012.0 |
| 20260507090501 | 16 | 58 | 6.4 | 8.0 | 0.00 | 0.00 | 0.00 | 76 | 1012.0 |
| 20260507090401 | 16 | 58 | 6.4 | 8.0 | 0.00 | 0.00 | 0.00 | 76 | 1012.0 |
| 20260507084501 | 16 | 58 | 6.4 | 8.0 | 0.00 | 0.00 | 0.00 | 76 | 1013.0 |
| 20260507084401 | 16 | 58 | 6.4 | 8.0 | 0.00 | 0.00 | 0.00 | 76 | 1013.0 |
| 20260507082500 | 16 | 58 | 6.4 | 8.0 | 0.00 | 0.00 | 0.00 | 76 | 1012.0 |
| 20260507082400 | 16 | 58 | 6.4 | 8.0 | 0.00 | 0.00 | 0.00 | 76 | 1012.0 |
| 20260507080459 | 16 | 58 | 6.4 | 8.0 | 0.00 | 0.00 | 0.00 | 76 | 1012.0 |
| 20260507080359 | 16 | 58 | 6.4 | 8.0 | 0.00 | 0.00 | 0.00 | 76 | 1012.0 |
| 20260507074459 | 16 | 58 | 6.4 | 8.0 | 0.00 | 0.00 | 0.00 | 76 | 1013.0 |
| 20260507074359 | 16 | 58 | 6.4 | 8.0 | 0.00 | 0.00 | 0.00 | 76 | 1013.0 |
| 20260507072458 | 16 | 58 | 6.4 | 8.0 | 0.00 | 0.00 | 0.00 | 76 | 1012.0 |
| 20260507072358 | 16 | 58 | 6.4 | 8.0 | 0.00 | 0.00 | 0.00 | 76 | 1012.0 |
| 20260507070458 | 16 | 58 | 6.4 | 8.0 | 0.00 | 0.00 | 0.00 | 76 | 1012.0 |
| 20260507070358 | 16 | 58 | 6.4 | 8.0 | 0.00 | 0.00 | 0.00 | 76 | 1012.0 |
| 20260507064458 | 16 | 58 | 6.4 | 8.0 | 0.00 | 0.00 | 0.00 | 76 | 1014.0 |
| 20260507064358 | 16 | 58 | 6.4 | 8.0 | 0.00 | 0.00 | 0.00 | 76 | 1014.0 |
| 20260507062457 | 16 | 58 | 6.4 | 8.0 | 0.00 | 0.00 | 0.00 | 76 | 1013.0 |
| 20260507062357 | 16 | 58 | 6.4 | 8.0 | 0.00 | 0.00 | 0.00 | 76 | 1013.0 |
| 20260507060456 | 16 | 58 | 6.4 | 8.0 | 0.00 | 0.00 | 0.00 | 76 | 1013.0 |
| 20260507060356 | 16 | 58 | 6.4 | 8.0 | 0.00 | 0.00 | 0.00 | 76 | 1013.0 |
| 20260507054456 | 16 | 58 | 6.4 | 8.0 | 0.00 | 0.00 | 0.00 | 76 | 1014.0 |
| 20260507054355 | 16 | 58 | 6.4 | 8.0 | 0.00 | 0.00 | 0.00 | 76 | 1014.0 |
| 20260507052455 | 16 | 58 | 6.4 | 8.0 | 0.00 | 0.00 | 0.00 | 76 | 1014.0 |
| 20260507052355 | 16 | 58 | 6.4 | 8.0 | 0.00 | 0.00 | 0.00 | 76 | 1014.0 |
| 20260507050455 | 16 | 58 | 6.4 | 8.0 | 0.00 | 0.00 | 0.00 | 76 | 1014.0 |
| 20260507050354 | 16 | 58 | 6.4 | 8.0 | 0.00 | 0.00 | 0.00 | 76 | 1014.0 |
| 20260507044454 | 17 | 58 | 6.4 | 8.0 | 0.00 | 0.00 | 0.00 | 76 | 1015.0 |
| 20260507044354 | 17 | 58 | 6.4 | 8.0 | 0.00 | 0.00 | 0.00 | 76 | 1015.0 |
| 20260507042453 | 17 | 58 | 6.4 | 8.0 | 0.00 | 0.00 | 0.00 | 76 | 1014.0 |
| 20260507042353 | 17 | 58 | 6.4 | 8.0 | 0.00 | 0.00 | 0.00 | 76 | 1014.0 |
| 20260507040453 | 17 | 58 | 6.4 | 8.0 | 0.00 | 0.00 | 0.00 | 76 | 1013.0 |
| 20260507040353 | 17 | 58 | 6.4 | 8.0 | 0.00 | 0.00 | 0.00 | 76 | 1013.0 |
| 20260507034452 | 17 | 58 | 6.4 | 8.0 | 0.00 | 0.00 | 0.00 | 76 | 1015.0 |
| 20260507034352 | 17 | 58 | 6.4 | 8.0 | 0.00 | 0.00 | 0.00 | 76 | 1015.0 |
| 20260507032452 | 17 | 58 | 6.4 | 8.0 | 0.00 | 0.00 | 0.00 | 76 | 1013.0 |
| 20260507032351 | 17 | 58 | 6.4 | 8.0 | 0.00 | 0.00 | 0.00 | 76 | 1013.0 |
| 20260507030451 | 17 | 58 | 6.4 | 8.0 | 0.00 | 0.00 | 0.00 | 76 | 1013.0 |
| 20260507030351 | 17 | 58 | 6.4 | 8.0 | 0.00 | 0.00 | 0.00 | 76 | 1013.0 |
| 20260507024450 | 17 | 58 | 6.4 | 8.0 | 0.00 | 0.00 | 0.00 | 76 | 1014.0 |
| 20260507024350 | 17 | 58 | 6.4 | 8.0 | 0.00 | 0.00 | 0.00 | 76 | 1014.0 |
| 20260507022450 | 17 | 58 | 6.4 | 8.0 | 0.00 | 0.00 | 0.00 | 76 | 1012.0 |
| 20260507022350 | 17 | 58 | 6.4 | 8.0 | 0.00 | 0.00 | 0.00 | 76 | 1012.0 |
| 20260507020450 | 17 | 58 | 6.4 | 8.0 | 0.00 | 0.00 | 0.00 | 76 | 1012.0 |
| 20260507020349 | 17 | 58 | 6.4 | 8.0 | 0.00 | 0.00 | 0.00 | 76 | 1012.0 |
| 20260507014449 | 17 | 58 | 6.4 | 8.0 | 0.00 | 0.00 | 0.00 | 76 | 1014.0 |
| 20260507014349 | 17 | 58 | 6.4 | 8.0 | 0.00 | 0.00 | 0.00 | 76 | 1014.0 |
| 20260507012448 | 17 | 58 | 6.4 | 8.0 | 0.00 | 0.00 | 0.00 | 76 | 1012.0 |
| 20260507012348 | 17 | 58 | 6.4 | 8.0 | 0.00 | 0.00 | 0.00 | 76 | 1012.0 |
| 20260507010447 | 18 | 58 | 6.4 | 8.0 | 0.00 | 0.00 | 0.00 | 76 | 1012.0 |
| 20260507010347 | 18 | 58 | 6.4 | 8.0 | 0.00 | 0.00 | 0.00 | 76 | 1012.0 |
| 20260507004447 | 18 | 58 | 6.4 | 8.0 | 0.00 | 0.00 | 0.00 | 75 | 1013.0 |
| 20260507004347 | 18 | 58 | 6.4 | 8.0 | 0.00 | 0.00 | 0.00 | 75 | 1013.0 |
| 20260507002446 | 19 | 58 | 6.4 | 8.0 | 0.00 | 0.00 | 0.00 | 75 | 1012.0 |
| 20260507002346 | 19 | 58 | 6.4 | 8.0 | 0.00 | 0.00 | 0.00 | 75 | 1012.0 |
| 20260507000446 | 20 | 58 | 6.4 | 8.0 | 0.00 | 0.00 | 0.00 | 75 | 1012.0 |
| 20260507000346 | 20 | 58 | 6.4 | 8.0 | 0.00 | 0.00 | 0.00 | 75 | 1012.0 |
| 20260506234445 | 20 | 58 | 6.4 | 8.0 | 0.00 | 0.00 | 0.00 | 75 | 1013.0 |
| 20260506234345 | 20 | 58 | 6.4 | 8.0 | 0.00 | 0.00 | 0.00 | 75 | 1013.0 |
| 20260506232445 | 20 | 58 | 6.4 | 8.0 | 0.00 | 0.00 | 0.00 | 75 | 1012.0 |
| 20260506232344 | 20 | 58 | 6.4 | 8.0 | 0.00 | 0.00 | 0.00 | 75 | 1012.0 |
| 20260506230444 | 20 | 58 | 6.4 | 8.0 | 0.00 | 0.00 | 0.00 | 75 | 1012.0 |
| 20260506230344 | 20 | 58 | 6.4 | 8.0 | 0.00 | 0.00 | 0.00 | 75 | 1012.0 |
| 20260506224444 | 21 | 58 | 6.4 | 8.0 | 0.00 | 0.00 | 0.00 | 74 | 1012.0 |
| 20260506224343 | 21 | 58 | 6.4 | 8.0 | 0.00 | 0.00 | 0.00 | 74 | 1012.0 |
| 20260506222443 | 21 | 58 | 6.4 | 8.0 | 0.00 | 0.00 | 0.00 | 74 | 1011.0 |
| 20260506222343 | 21 | 58 | 6.4 | 8.0 | 0.00 | 0.00 | 0.00 | 74 | 1011.0 |
| 20260506220443 | 21 | 58 | 6.4 | 8.0 | 0.00 | 0.00 | 0.00 | 74 | 1011.0 |
| 20260506220342 | 21 | 58 | 6.4 | 8.0 | 0.00 | 0.00 | 0.00 | 74 | 1011.0 |
| 20260506214442 | 21 | 58 | 6.4 | 8.0 | 0.00 | 0.00 | 0.00 | 74 | 1011.0 |
| 20260506214342 | 21 | 58 | 6.4 | 8.0 | 0.00 | 0.00 | 0.00 | 74 | 1011.0 |
| 20260506212442 | 21 | 58 | 6.4 | 8.0 | 0.00 | 0.00 | 0.00 | 74 | 1011.0 |
| 20260506212342 | 21 | 58 | 6.4 | 8.0 | 0.00 | 0.00 | 0.00 | 74 | 1011.0 |
| 20260506210441 | 21 | 58 | 6.4 | 8.0 | 0.00 | 0.00 | 0.00 | 74 | 1011.0 |
| 20260506210341 | 21 | 58 | 6.4 | 8.0 | 0.00 | 0.00 | 0.00 | 74 | 1011.0 |
| 20260506204441 | 21 | 58 | 6.4 | 9.7 | 0.00 | 0.00 | 0.00 | 74 | 1011.0 |
| 20260506204341 | 21 | 58 | 6.4 | 9.7 | 0.00 | 0.00 | 0.00 | 74 | 1011.0 |
| 20260506202440 | 21 | 57 | 8.0 | 9.7 | 0.00 | 0.00 | 0.00 | 75 | 1012.0 |
| 20260506202340 | 21 | 57 | 8.0 | 9.7 | 0.00 | 0.00 | 0.00 | 75 | 1012.0 |
| 20260506200440 | 21 | 57 | 8.0 | 9.7 | 0.00 | 0.00 | 0.00 | 75 | 1012.0 |
| 20260506200340 | 21 | 57 | 8.0 | 9.7 | 0.00 | 0.00 | 0.00 | 75 | 1012.0 |
| 20260506194439 | 21 | 56 | 8.0 | 11.3 | 0.00 | 0.00 | 0.00 | 75 | 1012.0 |
| 20260506194339 | 21 | 56 | 8.0 | 11.3 | 0.00 | 0.00 | 0.00 | 75 | 1012.0 |
| 20260506192438 | 21 | 56 | 8.0 | 11.3 | 0.00 | 0.00 | 0.00 | 75 | 1013.0 |
| 20260506192338 | 21 | 56 | 8.0 | 11.3 | 0.00 | 0.00 | 0.00 | 75 | 1013.0 |
| 20260506190438 | 21 | 56 | 8.0 | 11.3 | 0.03 | 0.00 | 0.00 | 75 | 1013.0 |
| 20260506190337 | 21 | 56 | 8.0 | 11.3 | 0.03 | 0.00 | 0.00 | 75 | 1013.0 |
| 20260506184437 | 21 | 56 | 8.0 | 11.3 | 0.03 | 0.00 | 0.00 | 75 | 1013.0 |
| 20260506184337 | 21 | 56 | 8.0 | 11.3 | 0.03 | 0.00 | 0.00 | 75 | 1013.0 |
| 20260506182437 | 21 | 58 | 6.4 | 9.7 | 0.00 | 0.00 | 0.00 | 75 | 1013.0 |
| 20260506182336 | 21 | 58 | 6.4 | 9.7 | 0.00 | 0.00 | 0.00 | 75 | 1013.0 |
| 20260506180436 | 21 | 58 | 6.4 | 8.0 | 0.00 | 0.00 | 0.00 | 74 | 1013.0 |
| 20260506180336 | 21 | 58 | 6.4 | 8.0 | 0.00 | 0.00 | 0.00 | 74 | 1013.0 |